createdAt,value
2022-10-09T00:02:19.054Z,4.47
2022-10-09T00:04:42.590Z,4.85
2022-10-09T00:07:07.604Z,4.65
2022-10-09T00:09:31.323Z,4.78
2022-10-09T00:11:54.883Z,5.10
2022-10-09T00:14:18.438Z,4.47
2022-10-09T00:16:42.180Z,4.38
2022-10-09T00:19:06.363Z,4.20
2022-10-09T00:21:32.269Z,4.28
2022-10-09T00:23:59.934Z,4.32
2022-10-09T00:26:24.027Z,4.32
2022-10-09T00:28:48.482Z,4.55
2022-10-09T00:31:13.146Z,4.00
2022-10-09T00:33:37.729Z,5.00
2022-10-09T00:36:04.852Z,4.72
2022-10-09T00:38:29.704Z,4.05
2022-10-09T00:40:54.639Z,4.55
2022-10-09T00:43:21.255Z,4.57
2022-10-09T00:45:53.385Z,5.82
2022-10-09T00:48:18.384Z,4.70
2022-10-09T00:50:46.543Z,4.85
2022-10-09T00:53:13.376Z,5.07
2022-10-09T00:55:38.726Z,4.83
2022-10-09T00:58:04.527Z,4.60
2022-10-09T01:00:28.530Z,5.03
2022-10-09T01:02:52.651Z,4.90
2022-10-09T01:05:16.792Z,4.78
2022-10-09T01:07:49.614Z,4.40
2022-10-09T01:10:28.103Z,5.05
2022-10-09T01:13:05.964Z,4.23
2022-10-09T01:15:36.257Z,3.60
2022-10-09T01:18:07.255Z,3.87
2022-10-09T01:20:43.086Z,4.07
2022-10-09T01:23:57.673Z,3.83
2022-10-09T01:27:01.353Z,4.00
2022-10-09T01:29:28.943Z,4.17
2022-10-09T01:31:53.805Z,4.07
2022-10-09T01:34:20.112Z,3.97
2022-10-09T01:36:45.353Z,4.00
2022-10-09T01:39:12.626Z,3.90
2022-10-09T01:41:36.551Z,3.85
2022-10-09T01:44:01.677Z,3.67
2022-10-09T01:46:29.624Z,4.20
2022-10-09T01:49:07.215Z,4.13
2022-10-09T01:51:38.227Z,4.37
2022-10-09T01:54:06.283Z,4.05
2022-10-09T01:56:34.427Z,4.17
2022-10-09T01:59:03.762Z,3.40
2022-10-09T02:01:31.313Z,3.47
2022-10-09T02:03:58.465Z,4.00
2022-10-09T02:06:22.948Z,3.90
2022-10-09T02:08:51.422Z,4.23
2022-10-09T02:11:15.981Z,4.53
2022-10-09T02:13:40.148Z,3.67
2022-10-09T02:16:14.011Z,4.00
2022-10-09T02:18:42.043Z,4.50
2022-10-09T02:21:13.134Z,4.23
2022-10-09T02:23:39.525Z,3.70
2022-10-09T02:26:03.182Z,3.60
2022-10-09T02:28:27.119Z,3.90
2022-10-09T02:30:59.263Z,4.20
2022-10-09T02:33:32.603Z,3.90
2022-10-09T02:35:56.232Z,4.40
2022-10-09T02:38:19.748Z,3.73
2022-10-09T02:40:43.373Z,3.93
2022-10-09T02:43:06.947Z,4.70
2022-10-09T02:45:30.564Z,4.30
2022-10-09T02:47:54.128Z,4.27
2022-10-09T02:50:19.269Z,4.60
2022-10-09T02:52:42.908Z,4.27
2022-10-09T02:55:07.290Z,4.13
2022-10-09T02:57:30.889Z,4.30
2022-10-09T02:59:54.457Z,4.30
2022-10-09T03:02:18.025Z,4.23
2022-10-09T03:04:41.743Z,4.37
2022-10-09T03:07:06.896Z,4.30
2022-10-09T03:09:33.654Z,4.40
2022-10-09T03:11:57.515Z,4.47
2022-10-09T03:14:21.108Z,3.90
2022-10-09T03:16:44.672Z,4.40
2022-10-09T03:19:08.294Z,3.67
2022-10-09T03:21:31.862Z,3.67
2022-10-09T03:23:57.235Z,4.23
2022-10-09T03:26:23.360Z,4.70
2022-10-09T03:28:49.467Z,4.17
2022-10-09T03:31:22.574Z,3.93
2022-10-09T03:33:51.306Z,3.90
2022-10-09T03:36:15.112Z,3.97
2022-10-09T03:38:38.883Z,3.50
2022-10-09T03:41:06.157Z,3.70
2022-10-09T03:43:29.930Z,4.00
2022-10-09T03:45:53.506Z,3.83
2022-10-09T03:48:17.162Z,3.73
2022-10-09T03:50:41.734Z,3.73
2022-10-09T03:53:05.384Z,3.60
2022-10-09T03:55:28.923Z,3.93
2022-10-09T03:57:53.875Z,3.43
2022-10-09T04:00:17.840Z,3.07
2022-10-09T04:02:41.462Z,3.57
2022-10-09T04:05:05.578Z,4.03
2022-10-09T04:07:29.135Z,5.07
2022-10-09T04:09:52.723Z,3.23
2022-10-09T04:12:16.396Z,3.37
2022-10-09T04:14:41.340Z,4.00
2022-10-09T04:17:04.951Z,4.27
2022-10-09T04:19:28.487Z,4.30
2022-10-09T04:21:52.066Z,3.97
2022-10-09T04:24:15.684Z,3.43
2022-10-09T04:26:39.247Z,4.30
2022-10-09T04:29:02.781Z,3.33
2022-10-09T04:31:27.786Z,3.00
2022-10-09T04:33:51.332Z,3.50
2022-10-09T04:36:14.868Z,3.77
2022-10-09T04:38:38.456Z,3.73
2022-10-09T04:41:04.675Z,3.13
2022-10-09T04:43:28.640Z,3.60
2022-10-09T04:45:52.286Z,3.30
2022-10-09T04:48:17.208Z,4.10
2022-10-09T04:50:40.928Z,4.07
2022-10-09T04:53:04.487Z,3.57
2022-10-09T04:55:28.063Z,3.00
2022-10-09T04:57:51.599Z,3.20
2022-10-09T05:00:16.479Z,3.87
2022-10-09T05:02:40.004Z,3.77
2022-10-09T05:05:05.498Z,4.17
2022-10-09T05:07:29.047Z,3.60
2022-10-09T05:09:52.639Z,3.13
2022-10-09T05:12:16.187Z,4.17
2022-10-09T05:14:39.752Z,3.83
2022-10-09T05:17:23.226Z,3.73
2022-10-09T05:19:47.526Z,3.83
2022-10-09T05:22:12.513Z,3.40
2022-10-09T05:24:36.059Z,3.20
2022-10-09T05:26:59.648Z,3.40
2022-10-09T05:29:23.384Z,3.07
2022-10-09T05:31:49.493Z,4.17
2022-10-09T05:34:13.624Z,3.50
2022-10-09T05:36:37.396Z,3.43
2022-10-09T05:39:02.370Z,4.03
2022-10-09T05:41:25.970Z,4.07
2022-10-09T05:43:51.019Z,3.77
2022-10-09T05:46:17.799Z,4.03
2022-10-09T05:48:44.339Z,3.73
2022-10-09T05:51:13.259Z,4.47
2022-10-09T05:53:36.993Z,3.77
2022-10-09T05:56:12.704Z,4.00
2022-10-09T05:58:36.278Z,3.80
2022-10-09T06:01:02.028Z,4.23
2022-10-09T06:03:25.675Z,3.47
2022-10-09T06:05:49.196Z,3.90
2022-10-09T06:08:12.776Z,4.23
2022-10-09T06:10:36.337Z,4.20
2022-10-09T06:13:01.279Z,3.43
2022-10-09T06:15:24.791Z,4.23
2022-10-09T06:17:48.416Z,3.50
2022-10-09T06:20:11.922Z,4.10
2022-10-09T06:22:35.472Z,3.70
2022-10-09T06:24:59.015Z,6.10
2022-10-09T06:27:22.570Z,10.47
2022-10-09T06:29:47.475Z,10.93
2022-10-09T06:32:11.104Z,9.67
2022-10-09T06:34:34.617Z,7.57
2022-10-09T06:36:58.407Z,6.53
2022-10-09T06:39:22.646Z,3.00
2022-10-09T06:41:46.223Z,3.90
2022-10-09T06:44:49.721Z,4.50
2022-10-09T06:47:13.309Z,2.97
2022-10-09T06:49:36.908Z,3.07
2022-10-09T06:52:00.507Z,3.47
2022-10-09T06:54:24.064Z,4.38
2022-10-09T06:56:47.619Z,4.50
2022-10-09T06:59:12.788Z,4.72
2022-10-09T07:01:37.859Z,4.15
2022-10-09T07:04:04.023Z,3.95
2022-10-09T07:06:29.391Z,4.60
2022-10-09T07:08:59.049Z,5.03
2022-10-09T07:11:25.492Z,7.22
2022-10-09T07:13:50.944Z,9.30
2022-10-09T07:16:14.768Z,6.85
2022-10-09T07:18:40.164Z,5.20
2022-10-09T07:21:04.623Z,5.93
2022-10-09T07:23:29.462Z,5.35
2022-10-09T07:25:53.015Z,4.95
2022-10-09T07:28:17.095Z,4.00
2022-10-09T07:30:40.755Z,4.50
2022-10-09T07:33:04.327Z,4.15
2022-10-09T07:35:29.301Z,4.03
2022-10-09T07:37:53.391Z,4.55
2022-10-09T07:40:17.220Z,4.20
2022-10-09T07:42:40.797Z,4.13
2022-10-09T07:45:04.624Z,4.10
2022-10-09T07:47:28.128Z,4.28
2022-10-09T07:49:51.832Z,4.30
2022-10-09T07:52:16.755Z,4.55
2022-10-09T07:54:40.340Z,4.00
2022-10-09T07:57:04.066Z,3.83
2022-10-09T07:59:27.711Z,3.70
2022-10-09T08:01:51.299Z,3.95
2022-10-09T08:04:14.945Z,3.45
2022-10-09T08:06:38.520Z,3.80
2022-10-09T08:09:06.594Z,3.92
2022-10-09T08:11:31.534Z,3.00
2022-10-09T08:13:55.603Z,3.70
2022-10-09T08:16:20.909Z,3.45
2022-10-09T08:18:44.651Z,3.58
2022-10-09T08:21:11.159Z,3.45
2022-10-09T08:23:34.826Z,3.28
2022-10-09T08:26:00.535Z,3.47
2022-10-09T08:28:24.725Z,3.17
2022-10-09T08:30:48.847Z,2.85
2022-10-09T08:33:12.492Z,3.55
2022-10-09T08:35:36.070Z,3.25
2022-10-09T08:37:59.602Z,3.00
2022-10-09T08:40:30.987Z,3.03
2022-10-09T08:43:01.698Z,2.97
2022-10-09T08:45:25.604Z,2.78
2022-10-09T08:47:56.567Z,3.30
2022-10-09T08:50:24.684Z,2.65
2022-10-09T08:52:55.978Z,2.72
2022-10-09T08:55:25.355Z,2.70
2022-10-09T08:57:53.454Z,2.83
2022-10-09T09:00:21.665Z,2.78
2022-10-09T09:03:27.171Z,2.90
2022-10-09T09:05:59.789Z,3.13
2022-10-09T09:08:33.381Z,2.78
2022-10-09T09:11:12.224Z,3.00
2022-10-09T09:13:53.990Z,2.60
2022-10-09T09:16:28.345Z,2.80
2022-10-09T09:19:05.523Z,2.70
2022-10-09T09:21:41.524Z,3.05
2022-10-09T09:24:14.180Z,3.15
2022-10-09T09:26:38.286Z,2.78
2022-10-09T09:29:06.030Z,2.65
2022-10-09T09:31:37.126Z,2.67
2022-10-09T09:34:10.279Z,2.88
2022-10-09T09:36:40.150Z,2.55
2022-10-09T09:41:47.444Z,2.22
2022-10-09T09:44:13.251Z,2.10
2022-10-09T09:46:40.501Z,2.70
2022-10-09T09:49:09.218Z,1.98
2022-10-09T09:51:34.275Z,2.15
2022-10-09T09:54:00.371Z,2.33
2022-10-09T09:56:59.735Z,2.00
2022-10-09T09:59:33.823Z,2.00
2022-10-09T10:02:10.028Z,1.95
2022-10-09T10:04:34.127Z,1.75
2022-10-09T10:06:57.956Z,1.90
2022-10-09T10:09:22.791Z,2.42
2022-10-09T10:11:50.371Z,1.95
2022-10-09T10:14:16.640Z,2.13
2022-10-09T10:16:41.671Z,2.00
2022-10-09T10:19:07.407Z,2.30
2022-10-09T10:21:42.341Z,1.73
2022-10-09T10:24:07.538Z,1.60
2022-10-09T10:26:37.250Z,1.55
2022-10-09T10:29:05.687Z,1.77
2022-10-09T10:31:47.726Z,2.08
2022-10-09T10:34:21.266Z,2.05
2022-10-09T10:36:45.152Z,1.58
2022-10-09T10:39:19.547Z,1.35
2022-10-09T10:41:49.148Z,1.50
2022-10-09T10:44:23.939Z,1.70
2022-10-09T10:46:52.708Z,1.20
2022-10-09T10:49:22.368Z,1.52
2022-10-09T10:52:04.278Z,1.85
2022-10-09T10:54:52.227Z,1.70
2022-10-09T10:57:23.155Z,1.65
2022-10-09T10:59:58.167Z,1.88
2022-10-09T11:03:07.646Z,1.85
2022-10-09T11:05:48.461Z,1.77
2022-10-09T11:08:34.199Z,1.52
2022-10-09T11:11:04.898Z,1.45
2022-10-09T11:13:33.487Z,1.30
2022-10-09T11:16:12.116Z,1.40
2022-10-09T11:19:01.535Z,1.20
2022-10-09T11:21:42.627Z,1.30
2022-10-09T11:24:58.248Z,1.48
2022-10-09T11:27:27.624Z,1.40
2022-10-09T11:29:57.296Z,1.35
2022-10-09T11:32:25.831Z,1.48
2022-10-09T11:34:56.905Z,1.23
2022-10-09T11:37:28.376Z,1.50
2022-10-09T11:39:52.089Z,1.48
2022-10-09T11:42:24.759Z,1.20
2022-10-09T11:45:01.383Z,1.40
2022-10-09T11:47:35.851Z,1.50
2022-10-09T11:50:18.872Z,1.30
2022-10-09T11:52:53.108Z,1.30
2022-10-09T11:55:22.850Z,1.40
2022-10-09T11:57:46.624Z,1.50
2022-10-09T12:00:12.496Z,1.60
2022-10-09T12:02:36.737Z,1.45
2022-10-09T12:05:00.491Z,1.70
2022-10-09T12:07:34.603Z,1.40
2022-10-09T12:10:07.782Z,1.45
2022-10-09T12:12:32.291Z,1.77
2022-10-09T12:14:55.925Z,1.60
2022-10-09T12:17:36.048Z,2.03
2022-10-09T12:20:07.758Z,2.30
2022-10-09T12:22:36.616Z,1.38
2022-10-09T12:25:06.911Z,1.40
2022-10-09T12:27:40.415Z,1.40
2022-10-09T12:30:19.143Z,1.70
2022-10-09T12:32:48.117Z,1.40
2022-10-09T12:35:23.436Z,2.03
2022-10-09T12:37:47.043Z,1.52
2022-10-09T12:40:17.351Z,1.70
2022-10-09T12:42:41.243Z,1.48
2022-10-09T12:45:05.242Z,1.65
2022-10-09T12:47:31.303Z,2.15
2022-10-09T12:50:00.974Z,1.63
2022-10-09T12:52:24.721Z,1.63
2022-10-09T12:54:48.250Z,2.03
2022-10-09T12:57:17.021Z,2.05
2022-10-09T12:59:41.067Z,1.70
2022-10-09T13:02:04.824Z,1.60
2022-10-09T13:04:32.896Z,1.30
2022-10-09T13:06:58.013Z,1.80
2022-10-09T13:09:25.103Z,1.35
2022-10-09T13:11:59.684Z,1.38
2022-10-09T13:14:34.716Z,1.50
2022-10-09T13:16:58.359Z,1.58
2022-10-09T13:19:27.557Z,1.65
2022-10-09T13:22:13.956Z,1.75
2022-10-09T13:24:38.074Z,1.58
2022-10-09T13:27:01.679Z,2.08
2022-10-09T13:29:26.851Z,1.63
2022-10-09T13:31:50.454Z,1.77
2022-10-09T13:34:15.048Z,1.20
2022-10-09T13:36:38.576Z,1.42
2022-10-09T13:39:02.228Z,1.52
2022-10-09T13:41:26.417Z,2.00
2022-10-09T13:43:51.858Z,1.75
2022-10-09T13:46:17.412Z,2.17
2022-10-09T13:48:41.015Z,1.48
2022-10-09T13:51:06.197Z,1.80
2022-10-09T13:53:29.817Z,1.50
2022-10-09T13:55:59.979Z,1.52
2022-10-09T13:58:24.843Z,1.70
2022-10-09T14:00:49.072Z,1.63
2022-10-09T14:03:14.088Z,2.00
2022-10-09T14:05:37.618Z,1.48
2022-10-09T14:08:01.271Z,1.65
2022-10-09T14:10:24.785Z,1.98
2022-10-09T14:12:48.595Z,1.48
2022-10-09T14:15:12.734Z,1.70
2022-10-09T14:17:36.267Z,1.50
2022-10-09T14:20:01.248Z,1.65
2022-10-09T14:22:24.851Z,1.23
2022-10-09T14:24:48.396Z,1.60
2022-10-09T14:27:12.260Z,1.38
2022-10-09T14:29:37.484Z,1.40
2022-10-09T14:32:01.039Z,1.35
2022-10-09T14:34:24.639Z,1.35
2022-10-09T14:36:49.975Z,1.70
2022-10-09T14:39:13.513Z,1.55
2022-10-09T14:41:38.027Z,1.40
2022-10-09T14:44:02.226Z,1.20
2022-10-09T14:46:27.080Z,1.40
2022-10-09T14:48:51.243Z,1.30
2022-10-09T14:51:17.848Z,1.30
2022-10-09T14:53:43.627Z,1.50
2022-10-09T14:56:11.583Z,1.30
2022-10-09T14:58:37.282Z,1.33
2022-10-09T15:01:01.576Z,1.20
2022-10-09T15:03:25.879Z,1.60
2022-10-09T15:05:49.507Z,1.33
2022-10-09T15:08:13.030Z,1.63
2022-10-09T15:10:38.088Z,1.60
2022-10-09T15:13:01.611Z,1.23
2022-10-09T15:15:26.980Z,1.67
2022-10-09T15:17:52.826Z,1.90
2022-10-09T15:20:16.616Z,1.30
2022-10-09T15:22:40.135Z,1.33
2022-10-09T15:25:03.839Z,1.60
2022-10-09T15:27:29.156Z,1.73
2022-10-09T15:29:52.712Z,1.63
2022-10-09T15:32:16.275Z,1.60
2022-10-09T15:34:41.183Z,1.50
2022-10-09T15:37:04.859Z,1.63
2022-10-09T15:39:28.578Z,1.63
2022-10-09T15:41:52.126Z,2.00
2022-10-09T15:44:20.526Z,1.63
2022-10-09T15:46:44.385Z,1.70
2022-10-09T15:49:09.047Z,1.63
2022-10-09T15:51:33.294Z,2.15
2022-10-09T15:53:57.347Z,1.80
2022-10-09T15:56:23.698Z,1.75
2022-10-09T15:58:47.515Z,1.70
2022-10-09T16:01:16.119Z,1.90
2022-10-09T16:03:40.624Z,1.70
2022-10-09T16:06:07.713Z,2.22
2022-10-09T16:08:31.674Z,1.70
2022-10-09T16:10:55.582Z,1.98
2022-10-09T16:13:21.096Z,1.80
2022-10-09T16:15:47.147Z,2.63
2022-10-09T16:18:13.176Z,6.97
2022-10-09T16:20:37.536Z,4.75
2022-10-09T16:23:01.229Z,4.57
2022-10-09T16:25:24.731Z,3.60
2022-10-09T16:27:48.351Z,5.53
2022-10-09T16:30:14.007Z,6.00
2022-10-09T16:32:37.977Z,5.53
2022-10-09T16:35:03.051Z,5.32
2022-10-09T16:37:26.647Z,5.20
2022-10-09T16:39:50.464Z,4.57
2022-10-09T16:42:14.000Z,4.47
2022-10-09T16:44:37.580Z,4.47
2022-10-09T16:47:01.148Z,4.63
2022-10-09T16:49:25.161Z,4.45
2022-10-09T16:51:50.298Z,4.05
2022-10-09T16:54:13.848Z,4.10
2022-10-09T16:56:40.885Z,4.82
2022-10-09T16:59:07.563Z,5.00
2022-10-09T17:01:32.272Z,4.60
2022-10-09T17:03:56.861Z,5.38
2022-10-09T17:06:20.937Z,5.45
2022-10-09T17:08:45.834Z,5.05
2022-10-09T17:11:11.030Z,5.30
2022-10-09T17:13:34.609Z,5.05
2022-10-09T17:15:58.187Z,5.20
2022-10-09T17:18:22.027Z,5.65
2022-10-09T17:20:45.680Z,5.07
2022-10-09T17:23:09.209Z,5.53
2022-10-09T17:25:34.380Z,5.20
2022-10-09T17:27:57.939Z,4.93
2022-10-09T17:30:21.728Z,5.03
2022-10-09T17:32:45.276Z,5.18
2022-10-09T17:35:09.929Z,5.43
2022-10-09T17:37:33.464Z,4.82
2022-10-09T17:39:57.275Z,5.28
2022-10-09T17:42:22.326Z,4.97
2022-10-09T17:44:46.012Z,5.07
2022-10-09T17:47:09.748Z,4.85
2022-10-09T17:49:33.386Z,7.05
2022-10-09T17:51:57.239Z,6.30
2022-10-09T17:54:20.861Z,6.90
2022-10-09T17:56:45.260Z,7.05
2022-10-09T17:59:11.411Z,7.45
2022-10-09T18:01:35.048Z,8.73
2022-10-09T18:03:59.662Z,8.23
2022-10-09T18:06:24.851Z,8.23
2022-10-09T18:08:48.618Z,9.27
2022-10-09T18:11:15.847Z,9.38
2022-10-09T18:13:41.573Z,8.85
2022-10-09T18:16:10.640Z,8.68
2022-10-09T18:18:34.310Z,10.38
2022-10-09T18:21:03.663Z,10.27
2022-10-09T18:23:27.213Z,9.02
2022-10-09T18:25:50.819Z,9.63
2022-10-09T18:28:15.118Z,9.27
2022-10-09T18:30:43.283Z,9.80
2022-10-09T18:33:08.281Z,9.98
2022-10-09T18:35:31.766Z,9.40
2022-10-09T18:37:55.311Z,9.85
2022-10-09T18:40:19.812Z,10.02
2022-10-09T18:42:43.420Z,10.57
2022-10-09T18:45:08.808Z,14.25
2022-10-09T18:47:35.546Z,13.35
2022-10-09T18:50:02.743Z,13.82
2022-10-09T18:52:27.017Z,14.50
2022-10-09T18:54:54.080Z,14.65
2022-10-09T18:57:17.987Z,15.75
2022-10-09T18:59:41.976Z,14.02
2022-10-09T19:02:05.848Z,15.15
2022-10-09T19:04:29.455Z,15.75
2022-10-09T19:06:55.544Z,15.27
2022-10-09T19:09:19.093Z,16.92
2022-10-09T19:11:42.683Z,17.25
2022-10-09T19:14:06.510Z,16.50
2022-10-09T19:16:31.752Z,17.80
2022-10-09T19:18:55.339Z,17.88
2022-10-09T19:21:18.905Z,18.63
2022-10-09T19:23:44.078Z,18.70
2022-10-09T19:26:07.698Z,18.75
2022-10-09T19:28:32.943Z,19.98
2022-10-09T19:30:56.758Z,20.65
2022-10-09T19:33:20.676Z,20.75
2022-10-09T19:35:49.734Z,22.40
2022-10-09T19:38:13.786Z,18.73
2022-10-09T19:40:38.744Z,21.15
2022-10-09T19:43:02.259Z,18.42
2022-10-09T19:45:25.900Z,17.60
2022-10-09T19:47:54.112Z,16.48
2022-10-09T19:50:18.142Z,18.73
2022-10-09T19:52:41.725Z,15.32
2022-10-09T19:55:05.988Z,14.48
2022-10-09T19:57:30.901Z,13.75
2022-10-09T19:59:54.512Z,14.23
2022-10-09T20:02:18.578Z,12.13
2022-10-09T20:04:42.181Z,12.30
2022-10-09T20:07:09.055Z,11.07
2022-10-09T20:09:36.074Z,10.48
2022-10-09T20:11:59.620Z,10.65
2022-10-09T20:14:25.292Z,10.52
2022-10-09T20:16:48.832Z,9.13
2022-10-09T20:19:12.975Z,9.10
2022-10-09T20:21:36.695Z,10.52
2022-10-09T20:24:01.336Z,9.43
2022-10-09T20:26:25.408Z,10.20
2022-10-09T20:28:50.150Z,10.52
2022-10-09T20:31:18.058Z,9.90
2022-10-09T20:33:42.207Z,9.07
2022-10-09T20:36:07.365Z,8.02
2022-10-09T20:38:30.996Z,6.93
2022-10-09T20:40:54.708Z,6.95
2022-10-09T20:43:18.455Z,6.88
2022-10-09T20:45:42.860Z,7.30
2022-10-09T20:48:07.800Z,6.97
2022-10-09T20:50:31.360Z,6.45
2022-10-09T20:52:54.936Z,5.82
2022-10-09T20:55:18.684Z,6.20
2022-10-09T20:57:42.303Z,5.57
2022-10-09T21:00:07.583Z,5.93
2022-10-09T21:02:31.138Z,5.75
2022-10-09T21:04:56.102Z,5.47
2022-10-09T21:07:19.683Z,5.85
2022-10-09T21:09:43.226Z,5.45
2022-10-09T21:12:07.058Z,5.22
2022-10-09T21:14:30.666Z,5.38
2022-10-09T21:16:54.247Z,6.10
2022-10-09T21:19:17.900Z,5.32
2022-10-09T21:21:45.363Z,5.28
2022-10-09T21:24:11.067Z,4.95
2022-10-09T21:26:36.074Z,4.80
2022-10-09T21:29:00.310Z,4.30
2022-10-09T21:31:28.341Z,5.00
2022-10-09T21:33:52.007Z,4.90
2022-10-09T21:36:29.493Z,4.82
2022-10-09T21:38:54.559Z,5.00
2022-10-09T21:41:18.091Z,4.70
2022-10-09T21:43:41.647Z,4.10
2022-10-09T21:46:05.283Z,4.00
2022-10-09T21:48:28.841Z,4.65
2022-10-09T21:50:52.392Z,4.80
2022-10-09T21:53:15.993Z,3.85
2022-10-09T21:55:41.219Z,4.82
2022-10-09T21:58:04.854Z,3.60
2022-10-09T22:00:28.449Z,3.85
2022-10-09T22:02:52.324Z,4.40
2022-10-09T22:05:16.156Z,3.90
2022-10-09T22:07:39.776Z,3.90
2022-10-09T22:10:03.851Z,4.00
2022-10-09T22:12:28.886Z,3.60
2022-10-09T22:14:52.452Z,3.55
2022-10-09T22:17:16.063Z,3.50
2022-10-09T22:19:39.632Z,3.58
2022-10-09T22:22:03.291Z,3.38
2022-10-09T22:24:29.223Z,3.20
2022-10-09T22:26:52.987Z,3.33
2022-10-09T22:29:17.949Z,3.28
2022-10-09T22:31:41.539Z,3.47
2022-10-09T22:34:05.554Z,3.30
2022-10-09T22:36:32.188Z,3.38
2022-10-09T22:38:58.583Z,3.20
2022-10-09T22:41:23.902Z,3.75
2022-10-09T22:43:50.252Z,3.90
2022-10-09T22:46:18.206Z,3.60
2022-10-09T22:48:43.050Z,3.40
2022-10-09T22:51:09.098Z,4.13
2022-10-09T22:53:32.843Z,3.95
2022-10-09T22:55:56.463Z,3.92
2022-10-09T22:58:20.040Z,3.72
2022-10-09T23:00:43.735Z,4.00
2022-10-09T23:03:08.700Z,3.58
2022-10-09T23:05:32.277Z,3.70
2022-10-09T23:07:55.799Z,3.35
2022-10-09T23:10:19.355Z,3.20
2022-10-09T23:12:42.910Z,3.40
2022-10-09T23:15:07.883Z,3.70
2022-10-09T23:17:31.412Z,3.45
2022-10-09T23:19:56.427Z,3.53
2022-10-09T23:22:20.027Z,3.47
2022-10-09T23:24:43.678Z,3.58
2022-10-09T23:27:07.236Z,3.47
2022-10-09T23:29:30.870Z,3.25
2022-10-09T23:31:54.749Z,3.40
2022-10-09T23:34:18.505Z,3.47
2022-10-09T23:36:43.524Z,3.40
2022-10-09T23:39:08.206Z,3.50
2022-10-09T23:41:32.290Z,3.17
2022-10-09T23:43:56.763Z,3.00
2022-10-09T23:46:23.499Z,3.70
2022-10-09T23:48:48.231Z,3.72
2022-10-09T23:51:12.301Z,3.40
2022-10-09T23:53:37.630Z,3.33
2022-10-09T23:56:01.205Z,3.17
2022-10-09T23:58:24.904Z,3.42
